sensor_id;sensor_type;location;lat;lon;timestamp;temperature;humidity
24017;DHT22;12222;50.090;19.702;2022-09-01T00:04:12;13.90;99.90
24017;DHT22;12222;50.090;19.702;2022-09-01T00:09:37;13.90;99.90
24017;DHT22;12222;50.090;19.702;2022-09-01T00:15:00;13.80;99.90
24017;DHT22;12222;50.090;19.702;2022-09-01T00:20:22;13.90;99.90
24017;DHT22;12222;50.090;19.702;2022-09-01T00:25:44;13.80;99.90
24017;DHT22;12222;50.090;19.702;2022-09-01T00:31:07;13.70;99.90
24017;DHT22;12222;50.090;19.702;2022-09-01T00:36:30;13.70;99.90
24017;DHT22;12222;50.090;19.702;2022-09-01T00:41:52;13.60;99.90
24017;DHT22;12222;50.090;19.702;2022-09-01T00:47:14;13.40;99.90
24017;DHT22;12222;50.090;19.702;2022-09-01T00:52:45;13.10;99.90
24017;DHT22;12222;50.090;19.702;2022-09-01T00:58:09;12.90;99.90
24017;DHT22;12222;50.090;19.702;2022-09-01T01:03:41;12.70;99.90
24017;DHT22;12222;50.090;19.702;2022-09-01T01:09:06;12.60;99.90
24017;DHT22;12222;50.090;19.702;2022-09-01T01:14:28;12.50;99.90
24017;DHT22;12222;50.090;19.702;2022-09-01T01:19:55;12.40;99.90
24017;DHT22;12222;50.090;19.702;2022-09-01T01:25:56;12.30;99.90
24017;DHT22;12222;50.090;19.702;2022-09-01T01:31:21;12.30;99.90
24017;DHT22;12222;50.090;19.702;2022-09-01T01:36:45;12.00;99.90
24017;DHT22;12222;50.090;19.702;2022-09-01T01:42:09;11.90;99.90
24017;DHT22;12222;50.090;19.702;2022-09-01T01:47:33;12.00;99.90
24017;DHT22;12222;50.090;19.702;2022-09-01T01:52:55;12.00;99.90
24017;DHT22;12222;50.090;19.702;2022-09-01T01:58:22;12.00;99.90
24017;DHT22;12222;50.090;19.702;2022-09-01T02:03:45;12.00;99.90
24017;DHT22;12222;50.090;19.702;2022-09-01T02:09:07;11.90;99.90
24017;DHT22;12222;50.090;19.702;2022-09-01T02:14:30;11.80;99.90
24017;DHT22;12222;50.090;19.702;2022-09-01T02:19:52;11.80;99.90
24017;DHT22;12222;50.090;19.702;2022-09-01T02:25:18;11.60;99.90
24017;DHT22;12222;50.090;19.702;2022-09-01T02:30:45;11.50;99.90
24017;DHT22;12222;50.090;19.702;2022-09-01T02:36:11;11.50;99.90
24017;DHT22;12222;50.090;19.702;2022-09-01T02:41:35;11.50;99.90
24017;DHT22;12222;50.090;19.702;2022-09-01T02:46:58;11.50;99.90
24017;DHT22;12222;50.090;19.702;2022-09-01T02:52:22;11.50;99.90
24017;DHT22;12222;50.090;19.702;2022-09-01T02:57:44;11.50;99.90
24017;DHT22;12222;50.090;19.702;2022-09-01T03:03:08;11.50;99.90
24017;DHT22;12222;50.090;19.702;2022-09-01T03:08:33;11.50;99.90
24017;DHT22;12222;50.090;19.702;2022-09-01T03:13:57;11.40;99.90
24017;DHT22;12222;50.090;19.702;2022-09-01T03:19:22;11.30;99.90
24017;DHT22;12222;50.090;19.702;2022-09-01T03:24:44;11.20;99.90
24017;DHT22;12222;50.090;19.702;2022-09-01T03:30:06;11.20;99.90
24017;DHT22;12222;50.090;19.702;2022-09-01T03:35:29;11.20;99.90
24017;DHT22;12222;50.090;19.702;2022-09-01T03:40:57;11.10;99.90
24017;DHT22;12222;50.090;19.702;2022-09-01T03:46:24;11.00;99.90
24017;DHT22;12222;50.090;19.702;2022-09-01T03:51:48;11.00;99.90
24017;DHT22;12222;50.090;19.702;2022-09-01T03:57:11;11.00;99.90
24017;DHT22;12222;50.090;19.702;2022-09-01T04:02:35;10.90;99.90
24017;DHT22;12222;50.090;19.702;2022-09-01T04:07:59;10.90;99.90
24017;DHT22;12222;50.090;19.702;2022-09-01T04:13:28;10.90;99.90
24017;DHT22;12222;50.090;19.702;2022-09-01T04:18:51;11.00;99.90
24017;DHT22;12222;50.090;19.702;2022-09-01T04:24:13;11.00;99.90
24017;DHT22;12222;50.090;19.702;2022-09-01T04:29:37;11.00;99.90
24017;DHT22;12222;50.090;19.702;2022-09-01T04:35:00;11.00;99.90
24017;DHT22;12222;50.090;19.702;2022-09-01T04:40:23;11.00;99.90
24017;DHT22;12222;50.090;19.702;2022-09-01T04:45:49;11.10;99.90
24017;DHT22;12222;50.090;19.702;2022-09-01T04:51:15;11.10;99.90
24017;DHT22;12222;50.090;19.702;2022-09-01T04:56:49;11.10;99.90
24017;DHT22;12222;50.090;19.702;2022-09-01T05:02:12;11.30;99.90
24017;DHT22;12222;50.090;19.702;2022-09-01T05:07:35;11.40;99.90
24017;DHT22;12222;50.090;19.702;2022-09-01T05:12:58;11.60;99.90
24017;DHT22;12222;50.090;19.702;2022-09-01T05:18:22;11.90;99.90
24017;DHT22;12222;50.090;19.702;2022-09-01T05:23:45;12.60;99.90
24017;DHT22;12222;50.090;19.702;2022-09-01T05:29:09;13.50;99.90
24017;DHT22;12222;50.090;19.702;2022-09-01T05:34:35;14.20;99.90
24017;DHT22;12222;50.090;19.702;2022-09-01T05:40:00;14.80;99.90
24017;DHT22;12222;50.090;19.702;2022-09-01T05:45:23;15.60;99.90
24017;DHT22;12222;50.090;19.702;2022-09-01T05:50:47;15.50;99.90
24017;DHT22;12222;50.090;19.702;2022-09-01T05:56:10;15.20;99.90
24017;DHT22;12222;50.090;19.702;2022-09-01T06:01:36;15.00;99.90
24017;DHT22;12222;50.090;19.702;2022-09-01T06:07:02;15.10;99.90
24017;DHT22;12222;50.090;19.702;2022-09-01T06:12:34;15.30;99.90
24017;DHT22;12222;50.090;19.702;2022-09-01T06:17:58;15.10;99.90
24017;DHT22;12222;50.090;19.702;2022-09-01T06:23:21;15.20;99.90
24017;DHT22;12222;50.090;19.702;2022-09-01T06:28:44;15.60;99.90
24017;DHT22;12222;50.090;19.702;2022-09-01T06:34:09;15.50;99.90
24017;DHT22;12222;50.090;19.702;2022-09-01T06:39:35;15.70;99.90
24017;DHT22;12222;50.090;19.702;2022-09-01T06:44:58;15.40;99.90
24017;DHT22;12222;50.090;19.702;2022-09-01T06:50:21;15.50;99.90
24017;DHT22;12222;50.090;19.702;2022-09-01T06:56:05;15.70;99.90
24017;DHT22;12222;50.090;19.702;2022-09-01T07:01:28;15.80;99.90
24017;DHT22;12222;50.090;19.702;2022-09-01T07:06:52;15.90;99.90
24017;DHT22;12222;50.090;19.702;2022-09-01T07:12:56;16.10;99.90
24017;DHT22;12222;50.090;19.702;2022-09-01T07:18:29;16.20;99.90
24017;DHT22;12222;50.090;19.702;2022-09-01T07:23:53;16.10;99.90
24017;DHT22;12222;50.090;19.702;2022-09-01T07:29:41;15.80;99.90
24017;DHT22;12222;50.090;19.702;2022-09-01T07:35:05;16.00;99.90
24017;DHT22;12222;50.090;19.702;2022-09-01T07:40:34;16.00;99.90
24017;DHT22;12222;50.090;19.702;2022-09-01T07:46:48;16.20;99.90
24017;DHT22;12222;50.090;19.702;2022-09-01T07:52:34;16.50;99.90
24017;DHT22;12222;50.090;19.702;2022-09-01T07:58:05;16.50;99.90
24017;DHT22;12222;50.090;19.702;2022-09-01T08:03:29;16.50;99.90
24017;DHT22;12222;50.090;19.702;2022-09-01T08:08:54;16.60;99.90
24017;DHT22;12222;50.090;19.702;2022-09-01T08:14:19;16.70;99.90
24017;DHT22;12222;50.090;19.702;2022-09-01T08:19:43;16.50;99.90
24017;DHT22;12222;50.090;19.702;2022-09-01T08:25:16;16.60;99.90
24017;DHT22;12222;50.090;19.702;2022-09-01T08:30:46;17.10;99.90
24017;DHT22;12222;50.090;19.702;2022-09-01T08:36:18;17.10;99.90
24017;DHT22;12222;50.090;19.702;2022-09-01T08:47:45;17.60;99.90
24017;DHT22;12222;50.090;19.702;2022-09-01T08:53:56;18.10;99.90
24017;DHT22;12222;50.090;19.702;2022-09-01T08:59:21;18.80;99.90
24017;DHT22;12222;50.090;19.702;2022-09-01T09:16:47;19.20;99.90
24017;DHT22;12222;50.090;19.702;2022-09-01T09:22:16;20.30;99.90
24017;DHT22;12222;50.090;19.702;2022-09-01T09:27:46;20.90;96.00
24017;DHT22;12222;50.090;19.702;2022-09-01T09:33:51;21.40;94.50
24017;DHT22;12222;50.090;19.702;2022-09-01T09:39:17;22.00;92.80
24017;DHT22;12222;50.090;19.702;2022-09-01T09:44:43;22.40;88.20
24017;DHT22;12222;50.090;19.702;2022-09-01T09:50:24;23.10;90.50
24017;DHT22;12222;50.090;19.702;2022-09-01T10:01:36;24.20;80.50
24017;DHT22;12222;50.090;19.702;2022-09-01T10:06:59;22.60;78.80
24017;DHT22;12222;50.090;19.702;2022-09-01T10:12:23;23.10;77.00
24017;DHT22;12222;50.090;19.702;2022-09-01T10:17:47;22.00;80.90
24017;DHT22;12222;50.090;19.702;2022-09-01T10:23:10;21.90;81.00
24017;DHT22;12222;50.090;19.702;2022-09-01T10:28:45;21.90;82.60
24017;DHT22;12222;50.090;19.702;2022-09-01T10:34:15;21.50;86.10
24017;DHT22;12222;50.090;19.702;2022-09-01T10:40:14;22.40;86.60
24017;DHT22;12222;50.090;19.702;2022-09-01T10:45:47;22.20;82.00
24017;DHT22;12222;50.090;19.702;2022-09-01T10:56:50;19.60;90.60
24017;DHT22;12222;50.090;19.702;2022-09-01T11:02:20;19.60;92.10
24017;DHT22;12222;50.090;19.702;2022-09-01T11:07:56;20.20;88.90
24017;DHT22;12222;50.090;19.702;2022-09-01T11:13:50;20.40;91.60
24017;DHT22;12222;50.090;19.702;2022-09-01T11:36:29;19.80;85.10
24017;DHT22;12222;50.090;19.702;2022-09-01T11:42:10;20.80;87.40
24017;DHT22;12222;50.090;19.702;2022-09-01T11:47:42;21.20;83.70
24017;DHT22;12222;50.090;19.702;2022-09-01T11:53:13;20.60;87.90
24017;DHT22;12222;50.090;19.702;2022-09-01T11:58:37;21.60;82.10
24017;DHT22;12222;50.090;19.702;2022-09-01T12:04:22;21.60;82.20
24017;DHT22;12222;50.090;19.702;2022-09-01T12:09:46;20.40;84.20
24017;DHT22;12222;50.090;19.702;2022-09-01T12:15:22;20.50;81.30
24017;DHT22;12222;50.090;19.702;2022-09-01T12:20:47;21.40;79.10
24017;DHT22;12222;50.090;19.702;2022-09-01T12:26:15;22.00;78.50
24017;DHT22;12222;50.090;19.702;2022-09-01T12:31:41;21.60;75.20
24017;DHT22;12222;50.090;19.702;2022-09-01T12:42:37;19.40;81.30
24017;DHT22;12222;50.090;19.702;2022-09-01T12:53:59;21.20;81.10
24017;DHT22;12222;50.090;19.702;2022-09-01T12:59:26;21.50;75.40
24017;DHT22;12222;50.090;19.702;2022-09-01T13:16:24;19.10;82.80
24017;DHT22;12222;50.090;19.702;2022-09-01T13:21:48;18.90;81.60
24017;DHT22;12222;50.090;19.702;2022-09-01T13:27:15;19.00;81.90
24017;DHT22;12222;50.090;19.702;2022-09-01T13:32:45;20.20;80.40
24017;DHT22;12222;50.090;19.702;2022-09-01T13:38:29;20.70;78.90
24017;DHT22;12222;50.090;19.702;2022-09-01T13:43:53;20.40;78.10
24017;DHT22;12222;50.090;19.702;2022-09-01T13:49:18;20.10;78.30
24017;DHT22;12222;50.090;19.702;2022-09-01T13:55:05;19.80;78.30
24017;DHT22;12222;50.090;19.702;2022-09-01T14:00:35;19.60;76.90
24017;DHT22;12222;50.090;19.702;2022-09-01T14:05:58;19.50;79.60
24017;DHT22;12222;50.090;19.702;2022-09-01T14:11:22;19.30;79.00
24017;DHT22;12222;50.090;19.702;2022-09-01T14:16:45;19.40;78.90
24017;DHT22;12222;50.090;19.702;2022-09-01T14:22:08;19.10;79.70
24017;DHT22;12222;50.090;19.702;2022-09-01T14:27:32;18.60;79.70
24017;DHT22;12222;50.090;19.702;2022-09-01T14:33:01;18.90;79.60
24017;DHT22;12222;50.090;19.702;2022-09-01T14:38:25;19.00;80.10
24017;DHT22;12222;50.090;19.702;2022-09-01T14:43:53;19.00;77.80
24017;DHT22;12222;50.090;19.702;2022-09-01T14:49:21;18.90;75.20
24017;DHT22;12222;50.090;19.702;2022-09-01T14:54:45;18.90;75.50
24017;DHT22;12222;50.090;19.702;2022-09-01T15:00:10;18.70;78.10
24017;DHT22;12222;50.090;19.702;2022-09-01T15:05:41;18.70;80.90
24017;DHT22;12222;50.090;19.702;2022-09-01T15:11:14;19.00;78.60
24017;DHT22;12222;50.090;19.702;2022-09-01T15:16:38;18.80;77.40
24017;DHT22;12222;50.090;19.702;2022-09-01T15:22:03;18.60;79.50
24017;DHT22;12222;50.090;19.702;2022-09-01T15:27:29;18.90;78.90
24017;DHT22;12222;50.090;19.702;2022-09-01T15:32:53;19.10;78.50
24017;DHT22;12222;50.090;19.702;2022-09-01T15:38:16;19.00;78.80
24017;DHT22;12222;50.090;19.702;2022-09-01T15:43:39;18.90;82.00
24017;DHT22;12222;50.090;19.702;2022-09-01T15:49:07;18.60;79.50
24017;DHT22;12222;50.090;19.702;2022-09-01T15:54:30;18.30;79.90
24017;DHT22;12222;50.090;19.702;2022-09-01T15:59:54;18.20;82.90
24017;DHT22;12222;50.090;19.702;2022-09-01T16:05:17;18.10;81.30
24017;DHT22;12222;50.090;19.702;2022-09-01T16:10:41;18.00;83.50
24017;DHT22;12222;50.090;19.702;2022-09-01T16:22:02;17.80;85.30
24017;DHT22;12222;50.090;19.702;2022-09-01T16:27:34;17.70;85.40
24017;DHT22;12222;50.090;19.702;2022-09-01T16:33:02;17.60;85.00
24017;DHT22;12222;50.090;19.702;2022-09-01T16:38:33;17.60;86.80
24017;DHT22;12222;50.090;19.702;2022-09-01T16:50:18;17.20;85.70
24017;DHT22;12222;50.090;19.702;2022-09-01T16:56:04;17.20;86.50
24017;DHT22;12222;50.090;19.702;2022-09-01T17:01:41;17.00;87.50
24017;DHT22;12222;50.090;19.702;2022-09-01T17:12:49;17.00;88.00
24017;DHT22;12222;50.090;19.702;2022-09-01T17:18:37;16.80;87.60
24017;DHT22;12222;50.090;19.702;2022-09-01T17:24:07;16.60;90.50
24017;DHT22;12222;50.090;19.702;2022-09-01T17:46:44;15.80;96.10
24017;DHT22;12222;50.090;19.702;2022-09-01T17:58:22;14.70;99.90
24017;DHT22;12222;50.090;19.702;2022-09-01T18:04:08;14.40;99.90
24017;DHT22;12222;50.090;19.702;2022-09-01T18:09:42;14.20;99.90
24017;DHT22;12222;50.090;19.702;2022-09-01T18:15:11;14.10;99.90
24017;DHT22;12222;50.090;19.702;2022-09-01T18:20:41;14.10;99.90
24017;DHT22;12222;50.090;19.702;2022-09-01T18:54:30;14.90;99.90
24017;DHT22;12222;50.090;19.702;2022-09-01T19:00:03;14.90;99.90
24017;DHT22;12222;50.090;19.702;2022-09-01T19:17:12;14.70;99.90
24017;DHT22;12222;50.090;19.702;2022-09-01T19:23:05;14.80;99.90
24017;DHT22;12222;50.090;19.702;2022-09-01T19:28:39;14.60;99.90
24017;DHT22;12222;50.090;19.702;2022-09-01T19:34:11;14.50;99.90
24017;DHT22;12222;50.090;19.702;2022-09-01T19:39:39;14.50;99.90
24017;DHT22;12222;50.090;19.702;2022-09-01T19:45:07;14.30;99.90
24017;DHT22;12222;50.090;19.702;2022-09-01T19:50:36;14.20;99.90
24017;DHT22;12222;50.090;19.702;2022-09-01T19:56:12;14.20;99.90
24017;DHT22;12222;50.090;19.702;2022-09-01T20:24:35;13.90;99.90
24017;DHT22;12222;50.090;19.702;2022-09-01T20:30:18;13.80;99.90
24017;DHT22;12222;50.090;19.702;2022-09-01T20:35:49;13.70;99.90
24017;DHT22;12222;50.090;19.702;2022-09-01T20:41:32;13.60;99.90
24017;DHT22;12222;50.090;19.702;2022-09-01T20:47:03;13.60;99.90
24017;DHT22;12222;50.090;19.702;2022-09-01T20:52:54;13.70;99.90
24017;DHT22;12222;50.090;19.702;2022-09-01T20:58:31;13.80;99.90
24017;DHT22;12222;50.090;19.702;2022-09-01T21:15:37;13.80;99.90
24017;DHT22;12222;50.090;19.702;2022-09-01T21:21:32;13.90;99.90
24017;DHT22;12222;50.090;19.702;2022-09-01T21:26:59;13.80;99.90
24017;DHT22;12222;50.090;19.702;2022-09-01T21:32:24;13.80;99.90
24017;DHT22;12222;50.090;19.702;2022-09-01T21:37:47;13.60;99.90
24017;DHT22;12222;50.090;19.702;2022-09-01T21:43:20;13.50;99.90
24017;DHT22;12222;50.090;19.702;2022-09-01T21:48:44;13.60;99.90
24017;DHT22;12222;50.090;19.702;2022-09-01T21:54:08;13.60;99.90
24017;DHT22;12222;50.090;19.702;2022-09-01T21:59:35;13.60;99.90
24017;DHT22;12222;50.090;19.702;2022-09-01T22:05:05;13.60;99.90
24017;DHT22;12222;50.090;19.702;2022-09-01T22:10:29;13.40;99.90
24017;DHT22;12222;50.090;19.702;2022-09-01T22:15:54;13.30;99.90
24017;DHT22;12222;50.090;19.702;2022-09-01T22:21:18;13.30;99.90
24017;DHT22;12222;50.090;19.702;2022-09-01T22:26:44;13.20;99.90
24017;DHT22;12222;50.090;19.702;2022-09-01T22:32:07;13.10;99.90
24017;DHT22;12222;50.090;19.702;2022-09-01T22:37:29;13.00;99.90
24017;DHT22;12222;50.090;19.702;2022-09-01T22:42:51;12.90;99.90
24017;DHT22;12222;50.090;19.702;2022-09-01T22:48:15;12.90;99.90
24017;DHT22;12222;50.090;19.702;2022-09-01T22:53:38;12.80;99.90
24017;DHT22;12222;50.090;19.702;2022-09-01T22:59:03;12.70;99.90
24017;DHT22;12222;50.090;19.702;2022-09-01T23:04:25;12.60;99.90
24017;DHT22;12222;50.090;19.702;2022-09-01T23:09:47;12.70;99.90
24017;DHT22;12222;50.090;19.702;2022-09-01T23:15:10;12.60;99.90
24017;DHT22;12222;50.090;19.702;2022-09-01T23:20:32;12.40;99.90
24017;DHT22;12222;50.090;19.702;2022-09-01T23:25:54;12.30;99.90
24017;DHT22;12222;50.090;19.702;2022-09-01T23:31:20;12.10;99.90
24017;DHT22;12222;50.090;19.702;2022-09-01T23:36:43;11.90;99.90
24017;DHT22;12222;50.090;19.702;2022-09-01T23:42:05;11.60;99.90
24017;DHT22;12222;50.090;19.702;2022-09-01T23:47:27;11.50;99.90
24017;DHT22;12222;50.090;19.702;2022-09-01T23:52:51;11.60;99.90
24017;DHT22;12222;50.090;19.702;2022-09-01T23:58:15;11.50;99.90
